Latest Weather Observations for Point Wilson

IDV60801

Issued at 7:02 pm EST Saturday 23 July 2016 (issued every 30 minutes, with the page automatically refreshed every 10 minutes)

About weather observations | Map of weather stations | Latest weather observations for VIC | Other Formats
Station Details ID: 087166 Name: POINT WILSON Lat: -38.10 Lon: 144.54 Height: 18.0 m
Data from the previous 72 hours. | See also: Recent months for locations in Victoria
Date/Time
EST
Temp
°C
App
Temp
°C
Dew
Point
°C
Rel
Hum
%
Delta-T
°C
Wind Press
QNH
hPa
Press
MSL
hPa
Rain since
9am
mm
Dir  Spd
km/h
Gust
km/h
Spd
kts
Gust
kts
23/07:00pm - - - - - WNW 28 35 15 19 - - -
23/06:30pm - - - - - W 28 33 15 18 - - -
23/06:00pm - - - - - W 28 33 15 18 - - -
23/05:43pm - - - - - WSW 30 37 16 20 - - -
23/05:30pm - - - - - W 37 43 20 23 - - -
23/05:00pm - - - - - W 39 54 21 29 - - -
23/04:30pm - - - - - W 39 46 21 25 - - -
23/04:00pm - - - - - W 33 43 18 23 - - -
23/03:30pm - - - - - W 35 44 19 24 - - -
23/03:00pm - - - - - W 41 56 22 30 - - -
23/02:30pm - - - - - W 41 50 22 27 - - -
23/02:00pm - - - - - W 35 46 19 25 - - -
23/01:30pm - - - - - WSW 39 50 21 27 - - -
23/01:26pm - - - - - WSW 41 50 22 27 - - -
23/01:00pm - - - - - W 46 56 25 30 - - -
23/12:30pm - - - - - W 44 54 24 29 - - -
23/12:00pm - - - - - W 44 52 24 28 - - -
23/11:30am - - - - - W 37 46 20 25 - - -
23/11:00am - - - - - W 41 48 22 26 - - -
23/10:30am - - - - - W 46 52 25 28 - - -
23/10:00am - - - - - W 35 41 19 22 - - -
23/09:30am - - - - - W 39 52 21 28 - - -
23/09:00am - - - - - W 33 41 18 22 - - -
23/08:30am - - - - - WSW 35 48 19 26 - - -
23/08:00am - - - - - WSW 35 44 19 24 - - -
23/07:30am - - - - - W 35 44 19 24 - - -
23/07:00am - - - - - W 39 48 21 26 - - -
23/06:30am - - - - - W 44 57 24 31 - - -
23/06:00am - - - - - W 44 52 24 28 - - -
23/05:30am - - - - - W 48 57 26 31 - - -
23/05:00am - - - - - W 46 56 25 30 - - -
23/04:30am - - - - - W 44 56 24 30 - - -
23/04:00am - - - - - W 46 54 25 29 - - -
23/03:30am - - - - - W 46 56 25 30 - - -
23/03:00am - - - - - W 46 59 25 32 - - -
23/02:36am - - - - - W 59 78 32 42 - - -
23/02:30am - - - - - W 65 78 35 42 - - -
23/02:11am - - - - - W 65 83 35 45 - - -
23/02:00am - - - - - W 63 78 34 42 - - -
23/01:51am - - - - - W 59 80 32 43 - - -
23/01:49am - - - - - W 57 80 31 43 - - -
23/01:30am - - - - - NW 70 98 38 53 - - -
23/01:22am - - - - - NW 59 98 32 53 - - -
23/01:08am - - - - - NW 46 65 25 35 - - -
23/01:00am - - - - - NW 43 50 23 27 - - -
23/12:30am - - - - - NW 37 48 20 26 - - -
23/12:00am - - - - - NW 41 50 22 27 - - -
 
Date/Time
EST
Temp
°C
App
Temp
°C
Dew
Point
°C
Rel
Hum
%
Delta-T
°C
Wind Press
QNH
hPa
Press
MSL
hPa
Rain since
9am
mm
Dir  Spd
km/h
Gust
km/h
Spd
kts
Gust
kts
22/11:30pm - - - - - NW 33 39 18 21 - - -
22/11:00pm - - - - - NW 28 32 15 17 - - -
22/10:30pm - - - - - NW 33 39 18 21 - - -
22/10:00pm - - - - - WNW 41 59 22 32 - - -
22/09:47pm - - - - - WNW 46 59 25 32 - - -
22/09:30pm - - - - - NNW 22 32 12 17 - - -
22/09:00pm - - - - - NW 15 19 8 10 - - -
22/08:30pm - - - - - NW 11 15 6 8 - - -
22/08:00pm - - - - - W 13 17 7 9 - - -
22/07:30pm - - - - - NW 19 20 10 11 - - -
22/07:00pm - - - - - WNW 22 24 12 13 - - -
22/06:30pm - - - - - NW 19 22 10 12 - - -
22/06:00pm - - - - - NW 28 32 15 17 - - -
22/05:30pm - - - - - WNW 28 35 15 19 - - -
22/05:00pm - - - - - WNW 32 37 17 20 - - -
22/04:30pm - - - - - WNW 37 52 20 28 - - -
22/04:00pm - - - - - WNW 39 46 21 25 - - -
22/03:30pm - - - - - WNW 37 44 20 24 - - -
22/03:00pm - - - - - WNW 37 44 20 24 - - -
22/02:30pm - - - - - WNW 41 52 22 28 - - -
22/02:00pm - - - - - WNW 44 52 24 28 - - -
22/01:54pm - - - - - W 44 59 24 32 - - -
22/01:30pm - - - - - WSW 59 80 32 43 - - -
22/01:19pm - - - - - WSW 52 65 28 35 - - -
22/01:00pm - - - - - WNW 50 63 27 34 - - -
22/12:30pm - - - - - NW 48 59 26 32 - - -
22/12:00pm - - - - - NW 46 57 25 31 - - -
22/11:30am - - - - - NW 43 56 23 30 - - -
22/11:00am - - - - - NW 43 52 23 28 - - -
22/10:30am - - - - - NW 41 46 22 25 - - -
22/10:06am - - - - - NW 37 56 20 30 - - -
22/10:00am - - - - - NW 33 43 18 23 - - -
22/09:30am - - - - - NW 32 37 17 20 - - -
22/09:00am - - - - - WNW 35 43 19 23 - - -
22/08:30am - - - - - NW 32 37 17 20 - - -
22/08:00am - - - - - NW 32 37 17 20 - - -
22/07:30am - - - - - NW 28 35 15 19 - - -
22/07:00am - - - - - NW 22 33 12 18 - - -
22/06:30am - - - - - NNW 20 32 11 17 - - -
22/06:00am - - - - - N 30 35 16 19 - - -
22/05:43am - - - - - NW 33 57 18 31 - - -
22/05:30am - - - - - W 43 56 23 30 - - -
22/05:17am - - - - - W 39 52 21 28 - - -
22/05:00am - - - - - N 26 35 14 19 - - -
22/04:56am - - - - - N 32 50 17 27 - - -
22/04:30am - - - - - N 33 39 18 21 - - -
22/04:00am - - - - - N 43 48 23 26 - - -
22/03:30am - - - - - N 48 57 26 31 - - -
22/03:00am - - - - - NNE 37 41 20 22 - - -
22/02:30am - - - - - N 37 43 20 23 - - -
22/02:00am - - - - - N 43 50 23 27 - - -
22/01:30am - - - - - N 46 59 25 32 - - -
22/01:00am - - - - - N 44 52 24 28 - - -
22/12:30am - - - - - NNE 39 44 21 24 - - -
22/12:00am - - - - - NE 33 39 18 21 - - -
 
Date/Time
EST
Temp
°C
App
Temp
°C
Dew
Point
°C
Rel
Hum
%
Delta-T
°C
Wind Press
QNH
hPa
Press
MSL
hPa
Rain since
9am
mm
Dir  Spd
km/h
Gust
km/h
Spd
kts
Gust
kts
21/11:30pm - - - - - NE 30 33 16 18 - - -
21/11:00pm - - - - - NNE 28 35 15 19 - - -
21/10:30pm - - - - - NNE 20 30 11 16 - - -
21/10:00pm - - - - - NNE 43 50 23 27 - - -
21/09:30pm - - - - - NNE 37 44 20 24 - - -
21/09:00pm - - - - - NE 33 37 18 20 - - -
21/08:30pm - - - - - NE 35 39 19 21 - - -
21/08:00pm - - - - - NE 32 35 17 19 - - -
21/07:30pm - - - - - NNE 24 28 13 15 - - -
21/07:00pm - - - - - NNE 28 32 15 17 - - -
21/06:30pm - - - - - NNE 20 24 11 13 - - -
21/06:00pm - - - - - NE 20 26 11 14 - - -
21/05:30pm - - - - - N 24 28 13 15 - - -
21/05:00pm - - - - - N 22 28 12 15 - - -
21/04:30pm - - - - - NNW 15 20 8 11 - - -
21/04:00pm - - - - - NW 20 30 11 16 - - -
21/03:30pm - - - - - NW 22 28 12 15 - - -
21/03:00pm - - - - - N 15 19 8 10 - - -
21/02:30pm - - - - - N 17 24 9 13 - - -
21/02:00pm - - - - - N 24 32 13 17 - - -
21/01:30pm - - - - - E 13 15 7 8 - - -
21/01:00pm - - - - - E 17 19 9 10 - - -
21/12:30pm - - - - - E 19 20 10 11 - - -
21/12:00pm - - - - - E 17 17 9 9 - - -
21/11:30am - - - - - E 13 15 7 8 - - -
21/11:00am - - - - - ENE 11 15 6 8 - - -
21/10:30am - - - - - E 13 15 7 8 - - -
21/10:00am - - - - - E 15 19 8 10 - - -
21/09:30am - - - - - ENE 19 20 10 11 - - -
21/09:00am - - - - - ENE 15 19 8 10 - - -
21/08:30am - - - - - NE 11 15 6 8 - - -
21/08:00am - - - - - NE 13 17 7 9 - - -
21/07:30am - - - - - NE 17 20 9 11 - - -
21/07:00am - - - - - NE 11 13 6 7 - - -
21/06:30am - - - - - NE 9 15 5 8 - - -
21/06:00am - - - - - NE 11 13 6 7 - - -
21/05:30am - - - - - NNE 9 13 5 7 - - -
21/05:00am - - - - - NNE 6 7 3 4 - - -
21/04:30am - - - - - N 2 6 1 3 - - -
21/04:00am - - - - - CALM 0 0 0 0 - - -
21/03:30am - - - - - CALM 0 0 0 0 - - -
21/03:00am - - - - - CALM 0 4 0 2 - - -
21/02:30am - - - - - CALM 0 0 0 0 - - -
21/02:00am - - - - - WNW 6 7 3 4 - - -
21/01:30am - - - - - W 7 7 4 4 - - -
21/01:00am - - - - - WNW 6 7 3 4 - - -
21/12:30am - - - - - CALM 0 0 0 0 - - -
21/12:00am - - - - - WNW 4 7 2 4 - - -
 
Date/Time
EST
Temp
°C
App
Temp
°C
Dew
Point
°C
Rel
Hum
%
Delta-T
°C
Wind Press
QNH
hPa
Press
MSL
hPa
Rain since
9am
mm
Dir  Spd
km/h
Gust
km/h
Spd
kts
Gust
kts
20/11:30pm - - - - - NW 9 11 5 6 - - -
20/11:00pm - - - - - CALM 0 0 0 0 - - -
20/10:30pm - - - - - CALM 0 0 0 0 - - -
20/10:00pm - - - - - CALM 0 0 0 0 - - -
20/09:30pm - - - - - CALM 0 0 0 0 - - -
20/09:00pm - - - - - CALM 0 0 0 0 - - -
20/08:30pm - - - - - CALM 0 2 0 1 - - -
20/08:00pm - - - - - SSE 4 6 2 3 - - -
20/07:30pm - - - - - SSE 7 7 4 4 - - -

Other Formats:

Comma delimited format used in spreadsheet applications
http://www.bom.gov.au/fwo/IDV60801/IDV60801.94847.axf

JavaScript Object Notation format (JSON) in row-major order
http://www.bom.gov.au/fwo/IDV60801/IDV60801.94847.json